createdAt,value
2017-09-14T00:00:49.504Z,56.04
2017-09-14T00:01:58.458Z,55.94
2017-09-14T00:03:07.424Z,56.43
2017-09-14T00:04:16.386Z,56.33
2017-09-14T00:05:25.676Z,56.23
2017-09-14T00:06:34.339Z,56.33
2017-09-14T00:07:42.978Z,56.33
2017-09-14T00:08:51.946Z,56.43
2017-09-14T00:10:00.588Z,56.52
2017-09-14T00:11:09.546Z,56.33
2017-09-14T00:12:18.819Z,55.85
2017-09-14T00:13:28.087Z,55.85
2017-09-14T00:14:36.731Z,56.43
2017-09-14T00:15:46.314Z,56.33
2017-09-14T00:16:55.616Z,56.43
2017-09-14T00:18:04.581Z,55.94
2017-09-14T00:19:13.859Z,55.56
2017-09-14T00:20:22.819Z,55.76
2017-09-14T00:21:32.405Z,55.76
2017-09-14T00:22:41.386Z,56.33
2017-09-14T00:23:50.023Z,56.33
2017-09-14T00:25:00.246Z,56.33
2017-09-14T00:26:10.148Z,56.33
2017-09-14T00:27:19.423Z,55.94
2017-09-14T00:28:28.382Z,55.94
2017-09-14T00:29:37.666Z,56.14
2017-09-14T00:30:46.622Z,56.14
2017-09-14T00:31:55.901Z,55.76
2017-09-14T00:33:04.542Z,55.94
2017-09-14T00:34:13.496Z,55.94
2017-09-14T00:35:22.144Z,55.76
2017-09-14T00:36:30.788Z,55.76
2017-09-14T00:37:39.754Z,55.85
2017-09-14T00:38:48.396Z,56.14
2017-09-14T00:39:57.352Z,55.85
2017-09-14T00:41:06.325Z,55.76
2017-09-14T00:42:15.611Z,56.04
2017-09-14T00:43:25.533Z,56.04
2017-09-14T00:44:35.121Z,55.66
2017-09-14T00:45:44.725Z,55.94
2017-09-14T00:46:53.363Z,55.85
2017-09-14T00:48:03.273Z,55.85
2017-09-14T00:49:11.911Z,55.66
2017-09-14T00:50:21.184Z,55.66
2017-09-14T00:51:29.818Z,55.66
2017-09-14T00:52:40.038Z,55.37
2017-09-14T00:53:49.319Z,55.56
2017-09-14T00:54:58.593Z,55.76
2017-09-14T00:56:08.184Z,55.46
2017-09-14T00:57:17.771Z,55.56
2017-09-14T00:58:26.743Z,54.99
2017-09-14T00:59:36.340Z,55.27
2017-09-14T01:00:45.621Z,55.08
2017-09-14T01:01:54.264Z,54.89
2017-09-14T01:03:03.552Z,54.99
2017-09-14T01:04:12.820Z,54.99
2017-09-14T01:05:22.130Z,55.18
2017-09-14T01:06:31.081Z,55.18
2017-09-14T01:07:40.036Z,55.37
2017-09-14T01:08:49.063Z,55.18
2017-09-14T01:09:58.675Z,55.46
2017-09-14T01:11:07.605Z,55.37
2017-09-14T01:12:16.894Z,54.99
2017-09-14T01:13:25.534Z,55.27
2017-09-14T01:14:34.823Z,55.08
2017-09-14T01:15:43.470Z,55.18
2017-09-14T01:16:53.386Z,54.79
2017-09-14T01:18:02.351Z,54.89
2017-09-14T01:19:11.627Z,55.08
2017-09-14T01:20:20.588Z,54.99
2017-09-14T01:21:29.304Z,55.27
2017-09-14T01:22:38.262Z,55.18
2017-09-14T01:23:47.219Z,54.89
2017-09-14T01:24:56.497Z,54.89
2017-09-14T01:26:05.769Z,54.79
2017-09-14T01:27:15.048Z,54.99
2017-09-14T01:28:24.012Z,54.89
2017-09-14T01:29:33.609Z,54.79
2017-09-14T01:32:23.625Z,54.79
2017-09-14T01:33:32.900Z,54.89
2017-09-14T01:34:41.665Z,54.79
2017-09-14T01:35:50.622Z,54.79
2017-09-14T01:36:59.271Z,54.79
2017-09-14T01:38:08.231Z,54.79
2017-09-14T01:39:16.894Z,54.5
2017-09-14T01:40:26.163Z,54.5
2017-09-14T01:41:35.747Z,54.5
2017-09-14T01:42:45.020Z,54.89
2017-09-14T01:43:53.724Z,54.82
2017-09-14T01:45:02.684Z,54.79
2017-09-14T01:46:12.927Z,54.34
2017-09-14T01:47:22.199Z,54.6
2017-09-14T01:48:31.480Z,54.5
2017-09-14T01:49:40.131Z,54.31
2017-09-14T01:50:48.774Z,54.69
2017-09-14T01:51:58.449Z,54.63
2017-09-14T01:53:07.089Z,54.6
2017-09-14T01:54:16.998Z,54.53
2017-09-14T01:55:25.953Z,54.89
2017-09-14T01:56:35.000Z,54.5
2017-09-14T01:57:44.462Z,54.82
2017-09-14T01:58:53.734Z,54.5
2017-09-14T02:00:02.707Z,54.5
2017-09-14T02:01:11.671Z,54.5
2017-09-14T02:02:20.945Z,54.6
2017-09-14T02:03:30.374Z,54.72
2017-09-14T02:04:39.354Z,54.72
2017-09-14T02:05:48.631Z,54.5
2017-09-14T02:06:57.280Z,54.69
2017-09-14T02:08:05.931Z,54.91
2017-09-14T02:09:15.205Z,54.79
2017-09-14T02:10:24.489Z,54.69
2017-09-14T02:11:33.760Z,54.69
2017-09-14T02:12:43.352Z,54.72
2017-09-14T02:13:52.946Z,54.99
2017-09-14T02:15:02.216Z,54.69
2017-09-14T02:16:10.856Z,54.41
2017-09-14T02:17:19.498Z,54.69
2017-09-14T02:18:28.774Z,54.6
2017-09-14T02:19:38.056Z,54.5
2017-09-14T02:20:47.124Z,54.41
2017-09-14T02:21:56.416Z,54.41
2017-09-14T02:23:05.069Z,54.6
2017-09-14T02:24:14.027Z,54.6
2017-09-14T02:25:22.665Z,54.6
2017-09-14T02:26:32.312Z,54.43
2017-09-14T02:27:41.266Z,54.31
2017-09-14T02:28:50.232Z,54.14
2017-09-14T02:29:59.507Z,54.22
2017-09-14T02:31:08.803Z,54.24
2017-09-14T02:32:17.917Z,54.41
2017-09-14T02:33:26.881Z,54.6
2017-09-14T02:34:35.856Z,54.79
2017-09-14T02:35:44.902Z,54.5
2017-09-14T02:36:53.880Z,54.79
2017-09-14T02:38:02.680Z,54.41
2017-09-14T02:39:11.972Z,54.69
2017-09-14T02:40:20.619Z,54.6
2017-09-14T02:41:30.221Z,54.99
2017-09-14T02:42:39.494Z,54.69
2017-09-14T02:43:48.135Z,54.5
2017-09-14T02:44:57.413Z,54.5
2017-09-14T02:46:06.071Z,54.69
2017-09-14T02:47:15.345Z,54.5
2017-09-14T02:48:24.944Z,54.99
2017-09-14T02:49:34.375Z,54.79
2017-09-14T02:50:43.011Z,54.69
2017-09-14T02:51:51.670Z,54.6
2017-09-14T02:53:00.942Z,54.89
2017-09-14T02:54:10.281Z,54.79
2017-09-14T02:55:19.545Z,54.6
2017-09-14T02:56:29.129Z,54.5
2017-09-14T02:57:38.090Z,54.69
2017-09-14T02:58:47.053Z,54.41
2017-09-14T02:59:55.692Z,54.5
2017-09-14T03:01:04.654Z,54.6
2017-09-14T03:02:13.620Z,54.5
2017-09-14T03:03:22.618Z,54.79
2017-09-14T03:04:32.208Z,54.79
2017-09-14T03:05:41.493Z,54.79
2017-09-14T03:06:50.916Z,54.69
2017-09-14T03:08:00.195Z,54.5
2017-09-14T03:09:08.845Z,54.69
2017-09-14T03:10:18.110Z,54.6
2017-09-14T03:11:27.066Z,54.6
2017-09-14T03:12:36.356Z,54.5
2017-09-14T03:13:45.951Z,54.99
2017-09-14T03:14:54.629Z,54.6
2017-09-14T03:16:03.913Z,55.76
2017-09-14T03:17:13.514Z,55.08
2017-09-14T03:18:23.255Z,55.08
2017-09-14T03:19:32.536Z,54.96
2017-09-14T03:20:41.188Z,55.08
2017-09-14T03:21:50.166Z,54.86
2017-09-14T03:22:59.200Z,54.99
2017-09-14T03:24:07.844Z,54.99
2017-09-14T03:25:17.134Z,55.37
2017-09-14T03:26:25.780Z,55.05
2017-09-14T03:27:34.425Z,55.27
2017-09-14T03:28:43.703Z,54.86
2017-09-14T03:29:52.670Z,54.96
2017-09-14T03:31:01.960Z,55.15
2017-09-14T03:32:10.604Z,55.63
2017-09-14T03:33:19.567Z,55.34
2017-09-14T03:34:28.533Z,55.05
2017-09-14T03:35:37.607Z,55.05
2017-09-14T03:36:46.892Z,55.24
2017-09-14T03:37:55.849Z,55.05
2017-09-14T03:39:04.496Z,55.24
2017-09-14T03:40:13.134Z,55.34
2017-09-14T03:41:22.418Z,55.15
2017-09-14T03:42:31.379Z,55.34
2017-09-14T03:43:40.342Z,55.15
2017-09-14T03:44:48.989Z,54.96
2017-09-14T03:45:57.641Z,55.24
2017-09-14T03:47:06.906Z,55.15
2017-09-14T03:48:16.497Z,55.05
2017-09-14T03:49:26.099Z,54.86
2017-09-14T03:50:35.385Z,54.96
2017-09-14T03:51:44.664Z,54.79
2017-09-14T03:52:54.334Z,54.57
2017-09-14T03:54:03.636Z,54.28
2017-09-14T03:55:12.292Z,54.28
2017-09-14T03:56:20.938Z,54.69
2017-09-14T03:57:29.605Z,54.67
2017-09-14T03:58:38.578Z,54.57
2017-09-14T03:59:47.221Z,54.57
2017-09-14T04:00:55.864Z,54.5
2017-09-14T04:02:05.758Z,54.57
2017-09-14T04:03:15.033Z,54.5
2017-09-14T04:04:24.464Z,54.47
2017-09-14T04:05:33.441Z,54.47
2017-09-14T04:06:43.036Z,54.77
2017-09-14T04:07:52.628Z,54.47
2017-09-14T04:09:01.904Z,54.6
2017-09-14T04:10:10.860Z,54.67
2017-09-14T04:11:20.136Z,54.47
2017-09-14T04:12:29.775Z,54.69
2017-09-14T04:13:39.045Z,54.77
2017-09-14T04:14:48.010Z,54.79
2017-09-14T04:15:56.655Z,54.96
2017-09-14T04:17:06.255Z,54.5
2017-09-14T04:18:14.910Z,54.99
2017-09-14T04:19:24.182Z,54.57
2017-09-14T04:20:33.138Z,54.67
2017-09-14T04:21:42.755Z,54.47
2017-09-14T04:22:51.714Z,54.67
2017-09-14T04:24:00.686Z,54.67
2017-09-14T04:25:09.959Z,54.5
2017-09-14T04:26:18.911Z,54.57
2017-09-14T04:27:27.875Z,54.57
2017-09-14T04:28:37.164Z,54.79
2017-09-14T04:29:46.115Z,54.6
2017-09-14T04:30:55.077Z,54.5
2017-09-14T04:32:04.094Z,54.41
2017-09-14T04:33:13.089Z,54.38
2017-09-14T04:34:22.055Z,54.57
2017-09-14T04:35:31.642Z,54.67
2017-09-14T04:36:40.917Z,54.67
2017-09-14T04:37:50.190Z,54.77
2017-09-14T04:38:59.771Z,54.77
2017-09-14T04:40:08.750Z,54.57
2017-09-14T04:41:17.707Z,54.47
2017-09-14T04:42:26.350Z,54.86
2017-09-14T04:43:35.652Z,54.67
2017-09-14T04:44:44.641Z,54.57
2017-09-14T04:45:53.598Z,54.67
2017-09-14T04:47:02.244Z,54.47
2017-09-14T04:48:11.557Z,54.57
2017-09-14T04:49:20.216Z,54.77
2017-09-14T04:50:29.210Z,54.38
2017-09-14T04:51:38.484Z,54.57
2017-09-14T04:52:47.464Z,54.47
2017-09-14T04:53:57.075Z,54.67
2017-09-14T04:55:06.162Z,54.19
2017-09-14T04:56:15.604Z,54.22
2017-09-14T04:57:24.253Z,54.22
2017-09-14T04:58:33.256Z,54.41
2017-09-14T04:59:42.861Z,54.22
2017-09-14T05:00:52.134Z,54.5
2017-09-14T05:02:01.720Z,53.92
2017-09-14T05:03:10.368Z,53.92
2017-09-14T05:04:19.651Z,53.74
2017-09-14T05:05:28.313Z,53.74
2017-09-14T05:06:37.276Z,53.35
2017-09-14T05:07:46.951Z,52.99
2017-09-14T05:08:55.619Z,53.28
2017-09-14T05:10:05.222Z,52.8
2017-09-14T05:11:14.496Z,52.8
2017-09-14T05:12:23.150Z,52.7
2017-09-14T05:13:32.267Z,52.63
2017-09-14T05:14:40.924Z,52.73
2017-09-14T05:15:50.528Z,52.34
2017-09-14T05:16:59.505Z,52.54
2017-09-14T05:18:08.484Z,51.86
2017-09-14T05:19:17.153Z,51.96
2017-09-14T05:20:25.821Z,51.67
2017-09-14T05:21:34.780Z,51.48
2017-09-14T05:22:43.760Z,51.76
2017-09-14T05:23:52.723Z,51.6
2017-09-14T05:25:02.078Z,51.7
2017-09-14T05:26:11.376Z,51.6
2017-09-14T05:27:20.421Z,51.21
2017-09-14T05:28:29.755Z,51.41
2017-09-14T05:29:38.860Z,51.02
2017-09-14T05:30:48.247Z,50.83
2017-09-14T05:31:57.572Z,51.05
2017-09-14T05:33:06.849Z,51.14
2017-09-14T05:34:15.806Z,51.05
2017-09-14T05:35:25.824Z,50.95
2017-09-14T05:36:34.498Z,50.66
2017-09-14T05:37:43.190Z,50.47
2017-09-14T05:38:52.491Z,50.66
2017-09-14T05:40:02.393Z,50.76
2017-09-14T05:41:11.433Z,50.59
2017-09-14T05:42:20.935Z,51.05
2017-09-14T05:43:29.920Z,50.78
2017-09-14T05:44:38.590Z,50.59
2017-09-14T05:45:47.621Z,50.49
2017-09-14T05:46:57.238Z,50.78
2017-09-14T05:48:06.552Z,50.49
2017-09-14T05:49:15.220Z,50.49
2017-09-14T05:50:24.811Z,50.21
2017-09-14T05:51:33.848Z,50.3
2017-09-14T05:52:42.818Z,50.3
2017-09-14T05:53:51.573Z,50.3
2017-09-14T05:55:00.561Z,50.3
2017-09-14T05:56:09.638Z,50.21
2017-09-14T05:57:18.604Z,50.3
2017-09-14T05:58:27.876Z,50.21
2017-09-14T05:59:37.003Z,50.3
2017-09-14T06:00:46.310Z,50.42
2017-09-14T06:01:56.237Z,50.11
2017-09-14T06:03:05.213Z,50.32
2017-09-14T06:04:14.250Z,50.21
2017-09-14T06:05:23.316Z,50.23
2017-09-14T06:06:32.305Z,50.23
2017-09-14T06:07:41.279Z,50.13
2017-09-14T06:08:50.548Z,50.42
2017-09-14T06:10:00.526Z,50.62
2017-09-14T06:11:09.892Z,50.71
2017-09-14T06:12:19.176Z,50.9
2017-09-14T06:13:29.128Z,50.81
2017-09-14T06:14:37.899Z,50.9
2017-09-14T06:15:46.906Z,50.62
2017-09-14T06:16:55.886Z,50.52
2017-09-14T06:18:05.509Z,50.71
2017-09-14T06:19:15.172Z,50.62
2017-09-14T06:20:24.762Z,50.23
2017-09-14T06:21:34.130Z,50.62
2017-09-14T06:22:42.827Z,50.23
2017-09-14T06:23:52.093Z,50.81
2017-09-14T06:25:01.067Z,50.81
2017-09-14T06:26:10.708Z,50.71
2017-09-14T06:27:19.713Z,50.71
2017-09-14T06:28:28.738Z,50.71
2017-09-14T06:29:37.775Z,50.71
2017-09-14T06:30:46.498Z,50.62
2017-09-14T06:31:55.788Z,50.81
2017-09-14T06:33:05.546Z,50.81
2017-09-14T06:34:14.431Z,50.9
2017-09-14T06:35:23.720Z,50.71
2017-09-14T06:36:33.038Z,50.62
2017-09-14T06:37:42.389Z,50.71
2017-09-14T06:38:51.704Z,50.62
2017-09-14T06:40:01.110Z,50.71
2017-09-14T06:41:10.162Z,50.62
2017-09-14T06:42:19.486Z,50.62
2017-09-14T06:43:28.502Z,50.62
2017-09-14T06:44:37.219Z,50.71
2017-09-14T06:45:46.376Z,50.81
2017-09-14T06:46:55.369Z,50.81
2017-09-14T06:48:04.397Z,50.81
2017-09-14T06:49:13.698Z,50.71
2017-09-14T06:50:22.386Z,50.62
2017-09-14T06:51:31.787Z,50.62
2017-09-14T06:52:40.821Z,50.62
2017-09-14T06:53:49.486Z,50.35
2017-09-14T06:54:58.146Z,50.32
2017-09-14T06:56:07.140Z,50.62
2017-09-14T06:57:31.043Z,50.23
2017-09-14T06:58:40.048Z,50.81
2017-09-14T06:59:49.397Z,50.81
2017-09-14T07:00:58.187Z,50.81
2017-09-14T07:02:07.179Z,50.62
2017-09-14T07:03:16.320Z,50.93
2017-09-14T07:04:25.295Z,50.62
2017-09-14T07:05:34.895Z,50.71
2017-09-14T07:06:43.884Z,50.62
2017-09-14T07:07:52.558Z,50.84
2017-09-14T07:09:02.026Z,50.62
2017-09-14T07:10:11.308Z,50.71
2017-09-14T07:11:20.277Z,50.62
2017-09-14T07:12:29.885Z,50.81
2017-09-14T07:13:39.799Z,50.52
2017-09-14T07:14:48.917Z,50.62
2017-09-14T07:15:57.909Z,50.62
2017-09-14T07:17:07.828Z,50.84
2017-09-14T07:18:18.071Z,50.9
2017-09-14T07:19:27.035Z,50.74
2017-09-14T07:20:36.316Z,51
2017-09-14T07:21:45.609Z,51.03
2017-09-14T07:22:54.910Z,50.62
2017-09-14T07:24:03.563Z,51.2
2017-09-14T07:25:12.228Z,51.1
2017-09-14T07:26:21.202Z,51.1
2017-09-14T07:27:30.184Z,51.2
2017-09-14T07:28:38.861Z,51.29
2017-09-14T07:29:48.143Z,51.2
2017-09-14T07:30:56.813Z,51.12
2017-09-14T07:32:06.139Z,51.32
2017-09-14T07:33:15.118Z,51.2
2017-09-14T07:34:24.087Z,51.1
2017-09-14T07:35:33.683Z,51.2
2017-09-14T07:36:42.971Z,51.39
2017-09-14T07:37:52.094Z,51.39
2017-09-14T07:39:01.403Z,51.39
2017-09-14T07:40:10.362Z,51.2
2017-09-14T07:41:19.647Z,51.2
2017-09-14T07:42:28.324Z,51.29
2017-09-14T07:43:38.027Z,51.39
2017-09-14T07:44:46.998Z,51.2
2017-09-14T07:45:55.654Z,51.1
2017-09-14T07:47:04.624Z,51.32
2017-09-14T07:48:13.905Z,51.1
2017-09-14T07:49:23.049Z,51.29
2017-09-14T07:50:32.012Z,51.32
2017-09-14T07:51:41.004Z,51.22
2017-09-14T07:52:50.615Z,51.32
2017-09-14T07:53:59.896Z,51.22
2017-09-14T07:55:08.878Z,51.03
2017-09-14T07:56:18.164Z,51.32
2017-09-14T07:57:27.771Z,51.03
2017-09-14T07:58:37.079Z,51.2
2017-09-14T07:59:46.045Z,51.22
2017-09-14T08:00:55.491Z,50.93
2017-09-14T08:02:04.787Z,51.2
2017-09-14T08:03:14.062Z,51.22
2017-09-14T08:04:23.027Z,51.22
2017-09-14T08:05:32.621Z,50.93
2017-09-14T08:06:42.226Z,51.22
2017-09-14T08:07:51.194Z,51.22
2017-09-14T08:09:00.166Z,50.84
2017-09-14T08:10:08.835Z,51.12
2017-09-14T08:11:18.124Z,51.03
2017-09-14T08:12:26.773Z,51.22
2017-09-14T08:13:35.426Z,51.32
2017-09-14T08:14:44.724Z,51.32
2017-09-14T08:15:53.690Z,51.12
2017-09-14T08:17:02.974Z,51.03
2017-09-14T08:18:12.233Z,51.22
2017-09-14T08:19:21.522Z,51.41
2017-09-14T08:20:30.803Z,51.12
2017-09-14T08:21:40.100Z,51.12
2017-09-14T08:22:48.753Z,51.12
2017-09-14T08:23:58.207Z,50.74
2017-09-14T08:25:07.496Z,50.84
2017-09-14T08:26:16.145Z,51.03
2017-09-14T08:27:25.108Z,51.03
2017-09-14T08:28:33.775Z,51.03
2017-09-14T08:29:42.735Z,50.64
2017-09-14T08:30:51.719Z,50.93
2017-09-14T08:32:01.003Z,50.93
2017-09-14T08:33:09.652Z,50.74
2017-09-14T08:34:18.935Z,50.93
2017-09-14T08:35:28.216Z,50.93
2017-09-14T08:36:37.506Z,50.64
2017-09-14T08:37:46.818Z,50.84
2017-09-14T08:38:55.499Z,50.93
2017-09-14T08:40:04.471Z,51.03
2017-09-14T08:41:13.906Z,50.93
2017-09-14T08:42:22.618Z,50.74
2017-09-14T08:43:31.905Z,50.74
2017-09-14T08:44:41.178Z,50.93
2017-09-14T08:45:49.832Z,51.12
2017-09-14T08:46:59.270Z,50.74
2017-09-14T08:48:08.241Z,51.22
2017-09-14T08:49:17.540Z,51.12
2017-09-14T08:50:26.826Z,51.12
2017-09-14T08:51:36.112Z,50.74
2017-09-14T08:52:44.762Z,51.03
2017-09-14T08:53:53.744Z,50.93
2017-09-14T08:55:02.428Z,50.93
2017-09-14T08:56:11.716Z,51.03
2017-09-14T08:57:20.371Z,50.93
2017-09-14T08:58:29.438Z,50.54
2017-09-14T08:59:38.733Z,50.74
2017-09-14T09:00:48.329Z,50.67
2017-09-14T09:01:57.631Z,50.76
2017-09-14T09:03:06.928Z,51.05
2017-09-14T09:04:15.990Z,50.57
2017-09-14T09:05:25.268Z,51.05
2017-09-14T09:06:34.238Z,50.28
2017-09-14T09:07:44.174Z,50.28
2017-09-14T09:08:53.139Z,50.86
2017-09-14T09:10:02.126Z,50.76
2017-09-14T09:11:10.788Z,50.67
2017-09-14T09:12:19.781Z,50.67
2017-09-14T09:13:29.072Z,50.76
2017-09-14T09:14:37.728Z,50.76
2017-09-14T09:15:47.017Z,50.76
2017-09-14T09:16:56.309Z,50.67
2017-09-14T09:18:05.588Z,50.76
2017-09-14T09:19:14.563Z,50.74
2017-09-14T09:20:23.550Z,50.96
2017-09-14T09:21:32.670Z,50.57
2017-09-14T09:22:41.330Z,50.57
2017-09-14T09:23:49.986Z,50.86
2017-09-14T09:24:58.961Z,50.57
2017-09-14T09:26:07.936Z,50.76
2017-09-14T09:27:17.080Z,50.76
2017-09-14T09:28:26.391Z,50.76
2017-09-14T09:29:36.339Z,50.57
2017-09-14T09:30:45.633Z,50.67
2017-09-14T09:31:54.930Z,50.67
2017-09-14T09:33:03.901Z,50.67
2017-09-14T09:34:12.543Z,50.67
2017-09-14T09:35:21.216Z,50.76
2017-09-14T09:36:30.494Z,50.76
2017-09-14T09:37:39.771Z,51.05
2017-09-14T09:38:48.738Z,50.76
2017-09-14T09:39:58.386Z,51.05
2017-09-14T09:41:07.993Z,51.05
2017-09-14T09:42:17.584Z,50.76
2017-09-14T09:43:26.549Z,50.96
2017-09-14T09:44:35.892Z,50.76
2017-09-14T09:45:45.500Z,50.67
2017-09-14T09:46:54.495Z,50.38
2017-09-14T09:48:03.463Z,51.05
2017-09-14T09:49:13.051Z,50.67
2017-09-14T09:50:22.441Z,50.67
2017-09-14T09:51:31.412Z,50.67
2017-09-14T09:52:40.690Z,50.57
2017-09-14T09:53:49.996Z,51.05
2017-09-14T09:54:59.288Z,50.57
2017-09-14T09:56:07.939Z,50.96
2017-09-14T09:57:16.603Z,50.86
2017-09-14T09:58:25.889Z,50.57
2017-09-14T09:59:34.867Z,50.76
2017-09-14T10:00:44.161Z,50.86
2017-09-14T10:01:53.745Z,50.86
2017-09-14T10:03:03.338Z,50.57
2017-09-14T10:04:11.987Z,50.28
2017-09-14T10:05:20.960Z,50.28
2017-09-14T10:06:29.921Z,50.96
2017-09-14T10:07:38.636Z,50.86
2017-09-14T10:08:47.292Z,50.86
2017-09-14T10:09:56.879Z,50.67
2017-09-14T10:11:06.483Z,50.67
2017-09-14T10:12:15.447Z,50.67
2017-09-14T10:13:24.417Z,50.67
2017-09-14T10:14:33.699Z,50.76
2017-09-14T10:15:42.686Z,50.67
2017-09-14T10:16:51.664Z,50.76
2017-09-14T10:18:00.643Z,50.86
2017-09-14T10:19:09.618Z,50.67
2017-09-14T10:20:18.587Z,50.86
2017-09-14T10:21:27.856Z,50.57
2017-09-14T10:22:37.148Z,50.76
2017-09-14T10:23:45.804Z,50.96
2017-09-14T10:24:54.933Z,50.67
2017-09-14T10:26:04.539Z,50.76
2017-09-14T10:27:13.521Z,51.05
2017-09-14T10:28:22.826Z,50.96
2017-09-14T10:29:32.399Z,51.05
2017-09-14T10:30:41.898Z,50.86
2017-09-14T10:31:50.887Z,50.96
2017-09-14T10:32:59.943Z,50.96
2017-09-14T10:34:09.636Z,50.86
2017-09-14T10:35:19.320Z,50.67
2017-09-14T10:36:28.900Z,50.96
2017-09-14T10:37:37.918Z,50.57
2017-09-14T10:38:46.937Z,50.67
2017-09-14T10:39:56.254Z,50.67
2017-09-14T10:41:05.248Z,50.67
2017-09-14T10:42:14.860Z,50.67
2017-09-14T10:43:23.518Z,50.67
2017-09-14T10:44:32.494Z,50.57
2017-09-14T10:45:41.497Z,50.76
2017-09-14T10:46:51.089Z,50.76
2017-09-14T10:48:00.177Z,50.76
2017-09-14T10:49:09.166Z,50.76
2017-09-14T10:50:18.204Z,50.76
2017-09-14T10:51:27.173Z,50.76
2017-09-14T10:52:36.804Z,50.86
2017-09-14T10:53:45.623Z,50.57
2017-09-14T10:54:54.602Z,50.67
2017-09-14T10:56:03.572Z,51.05
2017-09-14T10:57:12.548Z,50.76
2017-09-14T10:58:21.528Z,51.15
2017-09-14T10:59:30.980Z,51.05
2017-09-14T11:00:39.657Z,51.15
2017-09-14T11:01:48.964Z,51.15
2017-09-14T11:02:57.671Z,51.15
2017-09-14T11:04:06.642Z,50.67
2017-09-14T11:05:15.933Z,50.57
2017-09-14T11:06:25.533Z,50.67
2017-09-14T11:07:34.191Z,50.67
2017-09-14T11:08:43.171Z,50.76
2017-09-14T11:09:51.849Z,50.67
2017-09-14T11:11:01.518Z,50.67
2017-09-14T11:12:10.481Z,50.86
2017-09-14T11:13:19.777Z,50.86
2017-09-14T11:14:28.753Z,50.86
2017-09-14T11:15:38.373Z,50.38
2017-09-14T11:16:47.806Z,50.67
2017-09-14T11:17:56.771Z,50.67
2017-09-14T11:19:05.743Z,50.67
2017-09-14T11:20:14.706Z,50.86
2017-09-14T11:21:23.368Z,50.76
2017-09-14T11:22:32.021Z,50.96
2017-09-14T11:23:41.946Z,50.86
2017-09-14T11:24:51.542Z,50.28
2017-09-14T11:26:00.825Z,50.67
2017-09-14T11:27:09.799Z,51.05
2017-09-14T11:28:18.452Z,50.67
2017-09-14T11:29:28.042Z,50.76
2017-09-14T11:30:36.698Z,50.76
2017-09-14T11:31:46.016Z,50.57
2017-09-14T11:32:54.987Z,50.67
2017-09-14T11:34:04.072Z,50.76
2017-09-14T11:35:13.077Z,50.76
2017-09-14T11:36:22.062Z,50.57
2017-09-14T11:37:31.021Z,50.76
2017-09-14T11:38:40.305Z,50.76
2017-09-14T11:39:49.601Z,50.76
2017-09-14T11:40:58.580Z,50.76
2017-09-14T11:42:07.234Z,50.76
2017-09-14T11:43:16.524Z,50.67
2017-09-14T11:44:25.485Z,50.76
2017-09-14T11:45:35.133Z,50.67
2017-09-14T11:46:43.802Z,50.67
2017-09-14T11:47:52.781Z,50.76
2017-09-14T11:49:02.065Z,50.76
2017-09-14T11:50:10.721Z,50.67
2017-09-14T11:51:20.630Z,50.67
2017-09-14T11:52:30.231Z,50.57
2017-09-14T11:53:38.886Z,50.67
2017-09-14T11:54:47.855Z,50.76
2017-09-14T11:55:56.818Z,50.67
2017-09-14T11:57:05.566Z,50.76
2017-09-14T11:58:14.852Z,50.76
2017-09-14T11:59:24.149Z,50.76
2017-09-14T12:00:33.437Z,50.96
2017-09-14T12:01:42.430Z,50.76
2017-09-14T12:02:51.414Z,50.76
2017-09-14T12:04:01.019Z,51.05
2017-09-14T12:05:10.310Z,51.15
2017-09-14T12:06:19.614Z,51.05
2017-09-14T12:07:29.219Z,50.86
2017-09-14T12:08:38.023Z,51.15
2017-09-14T12:09:46.996Z,50.76
2017-09-14T12:10:55.960Z,51.05
2017-09-14T12:12:05.563Z,50.76
2017-09-14T12:13:14.847Z,50.67
2017-09-14T12:14:23.597Z,50.76
2017-09-14T12:15:32.264Z,50.67
2017-09-14T12:16:41.899Z,50.86
2017-09-14T12:17:50.551Z,50.67
2017-09-14T12:18:59.525Z,50.76
2017-09-14T12:20:08.642Z,50.67
2017-09-14T12:21:17.605Z,50.86
2017-09-14T12:22:26.585Z,50.67
2017-09-14T12:23:35.920Z,50.76
2017-09-14T12:24:45.204Z,50.96
2017-09-14T12:25:55.108Z,50.76
2017-09-14T12:27:04.715Z,50.76
2017-09-14T12:28:13.390Z,50.67
2017-09-14T12:29:22.670Z,50.76
2017-09-14T12:30:31.967Z,50.67
2017-09-14T12:31:41.603Z,50.57
2017-09-14T12:32:50.262Z,50.76
2017-09-14T12:33:59.233Z,50.67
2017-09-14T12:35:08.837Z,51.05
2017-09-14T12:36:17.803Z,51.05
2017-09-14T12:37:26.602Z,51.15
2017-09-14T12:38:35.982Z,51.15
2017-09-14T12:39:44.696Z,51.15
2017-09-14T12:40:54.005Z,51.15
2017-09-14T12:42:03.302Z,51.05
2017-09-14T12:43:12.417Z,51.15
2017-09-14T12:44:21.082Z,50.76
2017-09-14T12:45:30.359Z,50.67
2017-09-14T12:46:39.320Z,50.67
2017-09-14T12:47:48.001Z,50.96
2017-09-14T12:48:57.064Z,50.76
2017-09-14T12:50:05.732Z,50.76
2017-09-14T12:51:15.035Z,50.86
2017-09-14T12:52:24.319Z,50.76
2017-09-14T12:53:33.925Z,50.76
2017-09-14T12:54:43.195Z,50.86
2017-09-14T12:55:52.164Z,50.67
2017-09-14T12:57:00.841Z,50.57
2017-09-14T12:58:10.451Z,50.67
2017-09-14T12:59:19.418Z,50.67
2017-09-14T13:00:28.425Z,50.57
2017-09-14T13:01:37.398Z,50.67
2017-09-14T13:02:46.383Z,50.86
2017-09-14T13:03:55.353Z,50.67
2017-09-14T13:05:04.656Z,50.86
2017-09-14T13:06:13.631Z,50.76
2017-09-14T13:07:22.913Z,50.67
2017-09-14T13:08:32.211Z,50.86
2017-09-14T13:09:41.197Z,50.76
2017-09-14T13:10:50.228Z,50.96
2017-09-14T13:11:59.185Z,50.86
2017-09-14T13:13:08.472Z,50.86
2017-09-14T13:14:18.062Z,50.67
2017-09-14T13:15:27.358Z,50.67
2017-09-14T13:16:36.646Z,50.67
2017-09-14T13:17:45.768Z,50.67
2017-09-14T13:18:55.055Z,50.67
2017-09-14T13:20:04.032Z,50.76
2017-09-14T13:21:12.706Z,50.76
2017-09-14T13:22:21.683Z,50.76
2017-09-14T13:23:30.818Z,50.76
2017-09-14T13:24:39.807Z,50.67
2017-09-14T13:25:48.770Z,50.76
2017-09-14T13:26:57.742Z,50.96
2017-09-14T13:28:07.020Z,50.96
2017-09-14T13:29:15.783Z,50.57
2017-09-14T13:30:25.066Z,51.05
2017-09-14T13:31:34.030Z,51.15
2017-09-14T13:32:42.687Z,50.96
2017-09-14T13:33:51.965Z,51.15
2017-09-14T13:35:00.930Z,50.76
2017-09-14T13:36:10.225Z,50.76
2017-09-14T13:37:19.515Z,50.96
2017-09-14T13:38:28.176Z,50.67
2017-09-14T13:39:37.164Z,50.86
2017-09-14T13:40:46.141Z,50.67
2017-09-14T13:41:54.807Z,50.76
2017-09-14T13:43:04.123Z,50.76
2017-09-14T13:44:13.099Z,50.76
2017-09-14T13:45:22.065Z,50.76
2017-09-14T13:46:31.442Z,50.67
2017-09-14T13:47:40.720Z,50.67
2017-09-14T13:48:49.997Z,50.67
2017-09-14T13:49:58.653Z,50.76
2017-09-14T13:51:08.264Z,50.67
2017-09-14T13:52:17.229Z,50.67
2017-09-14T13:53:26.830Z,50.67
2017-09-14T13:54:35.815Z,50.67
2017-09-14T13:55:45.411Z,50.76
2017-09-14T13:56:54.700Z,50.96
2017-09-14T13:58:04.314Z,50.96
2017-09-14T13:59:13.282Z,51.05
2017-09-14T14:00:23.200Z,50.86
2017-09-14T14:01:31.887Z,50.86
2017-09-14T14:02:41.179Z,50.86
2017-09-14T14:03:50.160Z,50.86
2017-09-14T14:04:59.140Z,50.96
2017-09-14T14:06:08.430Z,50.96
2017-09-14T14:07:17.398Z,50.96
2017-09-14T14:08:26.059Z,50.96
2017-09-14T14:09:35.971Z,50.96
2017-09-14T14:10:44.652Z,50.86
2017-09-14T14:11:53.625Z,51.05
2017-09-14T14:13:02.919Z,50.96
2017-09-14T14:14:12.218Z,50.96
2017-09-14T14:15:21.499Z,50.67
2017-09-14T14:16:30.478Z,50.67
2017-09-14T14:17:39.774Z,50.67
2017-09-14T14:18:49.065Z,50.67
2017-09-14T14:19:58.046Z,50.76
2017-09-14T14:21:07.483Z,50.67
2017-09-14T14:22:16.460Z,50.76
2017-09-14T14:23:25.454Z,50.86
2017-09-14T14:24:35.051Z,50.86
2017-09-14T14:25:43.727Z,50.76
2017-09-14T14:26:52.719Z,50.76
2017-09-14T14:28:01.995Z,50.57
2017-09-14T14:29:10.997Z,50.57
2017-09-14T14:30:19.971Z,50.76
2017-09-14T14:31:29.580Z,50.67
2017-09-14T14:32:38.553Z,50.86
2017-09-14T14:33:47.525Z,50.67
2017-09-14T14:34:56.498Z,50.86
2017-09-14T14:36:05.483Z,50.86
2017-09-14T14:37:14.766Z,50.86
2017-09-14T14:38:23.950Z,51.15
2017-09-14T14:39:33.227Z,51.15
2017-09-14T14:40:42.204Z,51.25
2017-09-14T14:41:52.444Z,51.44
2017-09-14T14:43:01.741Z,51.25
2017-09-14T14:44:10.545Z,51.25
2017-09-14T14:45:19.213Z,51.15
2017-09-14T14:46:27.900Z,51.34
2017-09-14T14:47:36.870Z,51.15
2017-09-14T14:48:45.848Z,51.44
2017-09-14T14:49:55.544Z,51.32
2017-09-14T14:51:05.457Z,51.15
2017-09-14T14:52:14.754Z,51.22
2017-09-14T14:53:23.414Z,51.32
2017-09-14T14:54:32.394Z,51.12
2017-09-14T14:55:41.678Z,51.12